Cancun, Mexico

11:50 AM EST on September 04, 2015 (GMT -0500)
Cancun International | | Change Station
CLOSE
Current Station
Airport
Location: Cancun,
Elevation: 16 ft
Nearby Weather Stations

Elev 16 ft 21.04 °N, 86.88 °W | Updated 1 hour ago

Scattered Clouds
Scattered Clouds
90 °F
Feels Like 102 °F
N
7
Wind Variable Wind from ESE
Gusts 20 mph

Today
High -- | Low -- °F
--% Chance of Precip.
Yesterday
High -- | Low -- °F
Precip. -- in
6:31 AM 7:00 PM
Waning Gibbous, 58% visible
Pressure 29.97 in
Visibility 7.0 miles
Clouds Scattered Clouds 1800 ft
Scattered Clouds 30000 ft
Heat Index 102 °F
Dew Point 77 °F
Humidity 66%
Rainfall 0.00 in
Snow Depth Not available.
UV 10 out of 12
Pollen Not available.
Air Quality Not available.
Flu Activity Not available.
METAR MMUN 041545Z 11006G17KT 7SM SCT018 SCT300 32/25 A2997 RMK 8/108 MDT CU
Pressure 29.97 in
Visibility 7.0 miles
Clouds Scattered Clouds 1800 ft
Scattered Clouds 30000 ft
Heat Index 102 °F
Dew Point 77 °F
Humidity 66%
Rainfall 0.00 in
Snow Depth Not available.
UV 10 out of 12
Pollen Not available.
Air Quality Not available.
Flu Activity Not available.
METAR MMUN 041545Z 11006G17KT 7SM SCT018 SCT300 32/25 A2997 RMK 8/108 MDT CU

10-Day Weather Forecast

×

Almanac

Astronomy

Sep. 04, 2015 Rise Set
Actual Time
Civil Twilight
Nautical Twilight
Astronomical Twilight
Moon
Length of Visible Light
Length of Day
Tomorrow will be .
, % of the Moon is Illuminated

Today's Extremes

Country Highs Country Lows

Community

WunderPhotos

Upload Photos

1,852,226 photos uploaded!

WunderBlogs® & News

Nearby

Air Quality

  Air Quality AQ Index Pollutant
Not available.

Snow Depth

Station Depth Elevation

Earthquake Activity

City Distance Mag. Time & Date
Minimum magnitude displayed is 2.5.

Coastal Water Temperatures

Place Temperature

Stations

Nearby Weather Stations

Station Location Temp. Windchill Dew Point Humidity Wind Precip. Elev Updated Type